sensor_id;sensor_type;location;lat;lon;timestamp;temperature;humidity
9939;DHT22;5008;50.656;7.188;2023-01-20T05:00:44;0.10;99.90
9939;DHT22;5008;50.656;7.188;2023-01-20T05:03:11;0.10;99.90
9939;DHT22;5008;50.656;7.188;2023-01-20T05:05:37;0.20;99.90
9939;DHT22;5008;50.656;7.188;2023-01-20T05:08:04;0.10;99.90
9939;DHT22;5008;50.656;7.188;2023-01-20T05:10:31;0.10;99.90
9939;DHT22;5008;50.656;7.188;2023-01-20T05:12:58;0.20;99.90
9939;DHT22;5008;50.656;7.188;2023-01-20T05:15:25;0.10;99.90
9939;DHT22;5008;50.656;7.188;2023-01-20T05:17:53;0.20;99.90
9939;DHT22;5008;50.656;7.188;2023-01-20T05:20:20;0.20;99.90
9939;DHT22;5008;50.656;7.188;2023-01-20T05:22:47;0.20;99.90
9939;DHT22;5008;50.656;7.188;2023-01-20T05:25:14;0.30;99.90
9939;DHT22;5008;50.656;7.188;2023-01-20T05:27:40;0.20;99.90
9939;DHT22;5008;50.656;7.188;2023-01-20T05:30:10;0.30;99.90
9939;DHT22;5008;50.656;7.188;2023-01-20T05:32:37;0.30;99.90
9939;DHT22;5008;50.656;7.188;2023-01-20T05:35:06;0.20;99.90
9939;DHT22;5008;50.656;7.188;2023-01-20T05:37:33;0.20;99.90
9939;DHT22;5008;50.656;7.188;2023-01-20T05:40:00;0.20;99.90
9939;DHT22;5008;50.656;7.188;2023-01-20T05:42:27;0.30;99.90
9939;DHT22;5008;50.656;7.188;2023-01-20T05:44:53;0.30;99.90
9939;DHT22;5008;50.656;7.188;2023-01-20T05:47:20;0.40;99.90
9939;DHT22;5008;50.656;7.188;2023-01-20T05:49:47;0.50;99.90
9939;DHT22;5008;50.656;7.188;2023-01-20T05:52:15;0.70;99.90
9939;DHT22;5008;50.656;7.188;2023-01-20T05:54:42;0.70;99.90
9939;DHT22;5008;50.656;7.188;2023-01-20T05:57:09;0.50;99.90
9939;DHT22;5008;50.656;7.188;2023-01-20T05:59:35;0.40;99.90
9939;DHT22;5008;50.656;7.188;2023-01-20T06:02:02;0.40;99.90
9939;DHT22;5008;50.656;7.188;2023-01-20T06:04:29;0.30;99.90
9939;DHT22;5008;50.656;7.188;2023-01-20T06:06:56;0.30;99.90
9939;DHT22;5008;50.656;7.188;2023-01-20T06:09:24;0.40;99.90
9939;DHT22;5008;50.656;7.188;2023-01-20T06:11:51;0.40;99.90
9939;DHT22;5008;50.656;7.188;2023-01-20T06:14:18;0.40;99.90
9939;DHT22;5008;50.656;7.188;2023-01-20T06:16:44;0.40;99.90
9939;DHT22;5008;50.656;7.188;2023-01-20T06:19:11;0.50;99.90
9939;DHT22;5008;50.656;7.188;2023-01-20T06:21:38;0.60;99.90
9939;DHT22;5008;50.656;7.188;2023-01-20T06:24:05;0.70;99.90
9939;DHT22;5008;50.656;7.188;2023-01-20T06:26:34;0.60;99.90
9939;DHT22;5008;50.656;7.188;2023-01-20T06:29:00;0.50;99.90
9939;DHT22;5008;50.656;7.188;2023-01-20T06:31:27;0.50;99.90
9939;DHT22;5008;50.656;7.188;2023-01-20T06:33:54;0.50;99.90
9939;DHT22;5008;50.656;7.188;2023-01-20T06:36:21;0.50;99.90
9939;DHT22;5008;50.656;7.188;2023-01-20T06:38:48;0.50;99.90
9939;DHT22;5008;50.656;7.188;2023-01-20T06:41:18;0.50;99.90
9939;DHT22;5008;50.656;7.188;2023-01-20T06:43:46;0.50;99.90
9939;DHT22;5008;50.656;7.188;2023-01-20T06:46:15;0.50;99.90
9939;DHT22;5008;50.656;7.188;2023-01-20T06:48:43;0.60;99.90
9939;DHT22;5008;50.656;7.188;2023-01-20T06:51:11;0.70;99.90
9939;DHT22;5008;50.656;7.188;2023-01-20T06:53:38;0.70;99.90
9939;DHT22;5008;50.656;7.188;2023-01-20T06:56:05;0.70;99.90
9939;DHT22;5008;50.656;7.188;2023-01-20T06:58:32;0.70;99.90
9939;DHT22;5008;50.656;7.188;2023-01-20T07:01:05;0.70;99.90
9939;DHT22;5008;50.656;7.188;2023-01-20T07:03:33;0.70;99.90
9939;DHT22;5008;50.656;7.188;2023-01-20T07:06:03;0.70;99.90
9939;DHT22;5008;50.656;7.188;2023-01-20T07:08:30;0.70;99.90
9939;DHT22;5008;50.656;7.188;2023-01-20T07:10:57;0.80;99.90
9939;DHT22;5008;50.656;7.188;2023-01-20T07:13:24;0.80;99.90
9939;DHT22;5008;50.656;7.188;2023-01-20T07:15:50;0.90;99.90
9939;DHT22;5008;50.656;7.188;2023-01-20T07:18:19;0.90;99.90
9939;DHT22;5008;50.656;7.188;2023-01-20T07:20:46;0.90;99.90
9939;DHT22;5008;50.656;7.188;2023-01-20T07:23:13;0.90;99.90
9939;DHT22;5008;50.656;7.188;2023-01-20T07:25:39;0.90;99.90
9939;DHT22;5008;50.656;7.188;2023-01-20T07:28:06;0.90;99.90
9939;DHT22;5008;50.656;7.188;2023-01-20T07:30:33;0.90;99.90
9939;DHT22;5008;50.656;7.188;2023-01-20T07:33:00;0.90;99.90
9939;DHT22;5008;50.656;7.188;2023-01-20T07:35:28;0.90;99.90
9939;DHT22;5008;50.656;7.188;2023-01-20T07:37:55;0.90;99.90
9939;DHT22;5008;50.656;7.188;2023-01-20T07:40:21;0.80;99.90
9939;DHT22;5008;50.656;7.188;2023-01-20T07:42:48;0.80;99.90
9939;DHT22;5008;50.656;7.188;2023-01-20T07:45:16;0.90;99.90
9939;DHT22;5008;50.656;7.188;2023-01-20T07:47:43;0.90;99.90
9939;DHT22;5008;50.656;7.188;2023-01-20T07:50:10;0.90;99.90
9939;DHT22;5008;50.656;7.188;2023-01-20T07:52:38;0.90;99.90
9939;DHT22;5008;50.656;7.188;2023-01-20T07:55:06;0.80;99.90
9939;DHT22;5008;50.656;7.188;2023-01-20T07:57:33;0.80;99.90
9939;DHT22;5008;50.656;7.188;2023-01-20T08:00:00;0.80;99.90
9939;DHT22;5008;50.656;7.188;2023-01-20T08:02:27;0.80;99.90
9939;DHT22;5008;50.656;7.188;2023-01-20T08:04:54;0.80;99.90
9939;DHT22;5008;50.656;7.188;2023-01-20T08:07:21;0.80;99.90
9939;DHT22;5008;50.656;7.188;2023-01-20T08:09:49;0.80;99.90
9939;DHT22;5008;50.656;7.188;2023-01-20T08:12:15;0.90;99.90
9939;DHT22;5008;50.656;7.188;2023-01-20T08:14:42;0.90;99.90
9939;DHT22;5008;50.656;7.188;2023-01-20T08:17:09;0.90;99.90
9939;DHT22;5008;50.656;7.188;2023-01-20T08:19:36;0.80;99.90
9939;DHT22;5008;50.656;7.188;2023-01-20T08:22:02;0.80;99.90
9939;DHT22;5008;50.656;7.188;2023-01-20T08:24:29;0.70;99.90
9939;DHT22;5008;50.656;7.188;2023-01-20T08:26:57;0.80;99.90
9939;DHT22;5008;50.656;7.188;2023-01-20T08:29:24;0.80;99.90
9939;DHT22;5008;50.656;7.188;2023-01-20T08:31:51;0.80;99.90
9939;DHT22;5008;50.656;7.188;2023-01-20T08:34:18;0.80;99.90
9939;DHT22;5008;50.656;7.188;2023-01-20T08:36:46;0.80;99.90
9939;DHT22;5008;50.656;7.188;2023-01-20T08:39:15;0.80;99.90
9939;DHT22;5008;50.656;7.188;2023-01-20T08:41:43;0.90;99.90
9939;DHT22;5008;50.656;7.188;2023-01-20T08:44:11;0.90;99.90
9939;DHT22;5008;50.656;7.188;2023-01-20T08:46:39;0.90;99.90
9939;DHT22;5008;50.656;7.188;2023-01-20T08:49:06;0.90;99.90
9939;DHT22;5008;50.656;7.188;2023-01-20T08:51:33;0.90;99.90
9939;DHT22;5008;50.656;7.188;2023-01-20T08:54:01;0.90;99.90
9939;DHT22;5008;50.656;7.188;2023-01-20T08:56:28;0.80;99.90
9939;DHT22;5008;50.656;7.188;2023-01-20T08:58:56;0.90;99.90
9939;DHT22;5008;50.656;7.188;2023-01-20T09:01:26;0.90;99.90
9939;DHT22;5008;50.656;7.188;2023-01-20T09:03:54;1.00;99.90
9939;DHT22;5008;50.656;7.188;2023-01-20T09:06:21;1.10;99.90
9939;DHT22;5008;50.656;7.188;2023-01-20T09:08:48;1.20;99.90
9939;DHT22;5008;50.656;7.188;2023-01-20T09:11:18;1.30;99.90
9939;DHT22;5008;50.656;7.188;2023-01-20T09:13:46;1.50;99.90
9939;DHT22;5008;50.656;7.188;2023-01-20T09:16:14;1.60;99.90
9939;DHT22;5008;50.656;7.188;2023-01-20T09:18:43;1.70;99.90
9939;DHT22;5008;50.656;7.188;2023-01-20T09:21:10;1.80;99.90
9939;DHT22;5008;50.656;7.188;2023-01-20T09:23:38;1.90;99.90
9939;DHT22;5008;50.656;7.188;2023-01-20T09:26:06;1.90;99.90
9939;DHT22;5008;50.656;7.188;2023-01-20T09:28:33;1.90;99.90
9939;DHT22;5008;50.656;7.188;2023-01-20T09:31:02;2.00;99.90
9939;DHT22;5008;50.656;7.188;2023-01-20T09:33:30;2.00;99.90
9939;DHT22;5008;50.656;7.188;2023-01-20T09:35:58;2.10;99.90
9939;DHT22;5008;50.656;7.188;2023-01-20T09:38:26;2.10;99.90
9939;DHT22;5008;50.656;7.188;2023-01-20T09:41:16;2.10;99.90
9939;DHT22;5008;50.656;7.188;2023-01-20T09:44:11;2.20;99.90
9939;DHT22;5008;50.656;7.188;2023-01-20T09:46:50;2.30;99.90
9939;DHT22;5008;50.656;7.188;2023-01-20T09:49:46;2.40;99.90
9939;DHT22;5008;50.656;7.188;2023-01-20T09:52:35;2.40;99.90
9939;DHT22;5008;50.656;7.188;2023-01-20T09:55:24;2.50;99.90
9939;DHT22;5008;50.656;7.188;2023-01-20T09:57:57;2.70;99.90
9939;DHT22;5008;50.656;7.188;2023-01-20T10:00:28;2.80;99.90
9939;DHT22;5008;50.656;7.188;2023-01-20T10:02:59;2.90;99.90
9939;DHT22;5008;50.656;7.188;2023-01-20T10:05:31;3.00;99.90
9939;DHT22;5008;50.656;7.188;2023-01-20T10:08:05;3.00;99.90
9939;DHT22;5008;50.656;7.188;2023-01-20T10:10:37;3.10;99.90
9939;DHT22;5008;50.656;7.188;2023-01-20T10:13:09;3.10;99.90
9939;DHT22;5008;50.656;7.188;2023-01-20T10:15:42;3.10;99.90
9939;DHT22;5008;50.656;7.188;2023-01-20T10:18:14;3.10;99.90
9939;DHT22;5008;50.656;7.188;2023-01-20T10:20:45;3.20;99.90
9939;DHT22;5008;50.656;7.188;2023-01-20T10:23:22;3.20;99.90
9939;DHT22;5008;50.656;7.188;2023-01-20T10:25:54;3.20;99.90
9939;DHT22;5008;50.656;7.188;2023-01-20T10:28:26;3.20;99.90
9939;DHT22;5008;50.656;7.188;2023-01-20T10:30:54;3.20;99.90
9939;DHT22;5008;50.656;7.188;2023-01-20T10:33:26;3.20;99.90
9939;DHT22;5008;50.656;7.188;2023-01-20T10:35:56;3.40;99.90
9939;DHT22;5008;50.656;7.188;2023-01-20T10:38:30;3.40;99.90
9939;DHT22;5008;50.656;7.188;2023-01-20T10:41:05;3.50;99.90
9939;DHT22;5008;50.656;7.188;2023-01-20T10:43:34;3.50;99.90
9939;DHT22;5008;50.656;7.188;2023-01-20T10:46:14;3.50;99.90
9939;DHT22;5008;50.656;7.188;2023-01-20T10:48:54;3.50;99.90
9939;DHT22;5008;50.656;7.188;2023-01-20T10:51:31;3.50;99.90
9939;DHT22;5008;50.656;7.188;2023-01-20T10:54:16;3.40;99.90
9939;DHT22;5008;50.656;7.188;2023-01-20T10:56:47;3.40;99.90
9939;DHT22;5008;50.656;7.188;2023-01-20T10:59:22;3.60;99.90
9939;DHT22;5008;50.656;7.188;2023-01-20T11:01:55;3.70;99.90
9939;DHT22;5008;50.656;7.188;2023-01-20T11:04:23;3.90;99.90
9939;DHT22;5008;50.656;7.188;2023-01-20T11:06:53;4.00;99.90
9939;DHT22;5008;50.656;7.188;2023-01-20T11:09:30;4.00;99.90
9939;DHT22;5008;50.656;7.188;2023-01-20T11:11:59;4.00;99.90
9939;DHT22;5008;50.656;7.188;2023-01-20T11:14:26;4.10;99.90
9939;DHT22;5008;50.656;7.188;2023-01-20T11:16:57;4.10;99.90
9939;DHT22;5008;50.656;7.188;2023-01-20T11:19:25;4.10;99.90
9939;DHT22;5008;50.656;7.188;2023-01-20T11:21:52;4.00;99.90
9939;DHT22;5008;50.656;7.188;2023-01-20T11:24:37;3.90;99.90
9939;DHT22;5008;50.656;7.188;2023-01-20T11:27:11;3.90;99.90
9939;DHT22;5008;50.656;7.188;2023-01-20T11:29:41;3.90;99.90
9939;DHT22;5008;50.656;7.188;2023-01-20T11:32:29;3.80;99.90
9939;DHT22;5008;50.656;7.188;2023-01-20T11:34:57;3.80;99.90
9939;DHT22;5008;50.656;7.188;2023-01-20T11:37:26;3.80;99.90
9939;DHT22;5008;50.656;7.188;2023-01-20T11:40:14;3.80;99.90
9939;DHT22;5008;50.656;7.188;2023-01-20T11:42:43;3.80;99.90
9939;DHT22;5008;50.656;7.188;2023-01-20T11:45:27;3.80;99.90
9939;DHT22;5008;50.656;7.188;2023-01-20T11:48:03;3.80;99.90
9939;DHT22;5008;50.656;7.188;2023-01-20T11:50:38;3.80;99.90
9939;DHT22;5008;50.656;7.188;2023-01-20T11:53:19;3.80;99.90
9939;DHT22;5008;50.656;7.188;2023-01-20T11:55:50;3.80;99.90
9939;DHT22;5008;50.656;7.188;2023-01-20T11:58:20;3.80;99.90
9939;DHT22;5008;50.656;7.188;2023-01-20T12:00:49;3.80;99.90
9939;DHT22;5008;50.656;7.188;2023-01-20T12:06:24;3.90;99.90
9939;DHT22;5008;50.656;7.188;2023-01-20T12:08:55;3.90;99.90
9939;DHT22;5008;50.656;7.188;2023-01-20T12:11:27;3.90;99.90
9939;DHT22;5008;50.656;7.188;2023-01-20T12:14:09;3.80;99.90
9939;DHT22;5008;50.656;7.188;2023-01-20T12:16:54;3.90;99.90
9939;DHT22;5008;50.656;7.188;2023-01-20T12:19:29;3.80;99.90
9939;DHT22;5008;50.656;7.188;2023-01-20T12:22:01;3.80;99.90
9939;DHT22;5008;50.656;7.188;2023-01-20T12:24:35;3.70;99.90
9939;DHT22;5008;50.656;7.188;2023-01-20T12:27:22;3.80;99.90
9939;DHT22;5008;50.656;7.188;2023-01-20T12:29:54;3.80;99.90
9939;DHT22;5008;50.656;7.188;2023-01-20T12:32:22;3.70;99.90
9939;DHT22;5008;50.656;7.188;2023-01-20T12:34:49;3.90;99.90
9939;DHT22;5008;50.656;7.188;2023-01-20T12:37:21;3.80;99.90
9939;DHT22;5008;50.656;7.188;2023-01-20T12:40:07;3.70;99.90
9939;DHT22;5008;50.656;7.188;2023-01-20T12:46:17;3.60;99.90
9939;DHT22;5008;50.656;7.188;2023-01-20T12:48:56;3.60;99.90
9939;DHT22;5008;50.656;7.188;2023-01-20T12:51:44;3.60;99.90
9939;DHT22;5008;50.656;7.188;2023-01-20T12:54:40;3.60;99.90
9939;DHT22;5008;50.656;7.188;2023-01-20T12:57:20;3.60;99.90
9939;DHT22;5008;50.656;7.188;2023-01-20T13:00:02;3.60;99.90
9939;DHT22;5008;50.656;7.188;2023-01-20T13:02:50;3.60;99.90
9939;DHT22;5008;50.656;7.188;2023-01-20T13:05:45;3.60;99.90
9939;DHT22;5008;50.656;7.188;2023-01-20T13:08:21;3.60;99.90
9939;DHT22;5008;50.656;7.188;2023-01-20T13:10:58;3.70;99.90
9939;DHT22;5008;50.656;7.188;2023-01-20T13:13:37;3.70;99.90
9939;DHT22;5008;50.656;7.188;2023-01-20T13:16:12;3.60;99.90
9939;DHT22;5008;50.656;7.188;2023-01-20T13:18:54;3.60;99.90
9939;DHT22;5008;50.656;7.188;2023-01-20T13:21:29;3.60;99.90
9939;DHT22;5008;50.656;7.188;2023-01-20T13:23:58;3.60;99.90
9939;DHT22;5008;50.656;7.188;2023-01-20T13:26:26;3.50;99.90
9939;DHT22;5008;50.656;7.188;2023-01-20T13:28:55;3.50;99.90
9939;DHT22;5008;50.656;7.188;2023-01-20T13:31:42;3.50;99.90
9939;DHT22;5008;50.656;7.188;2023-01-20T13:34:33;3.50;99.90
9939;DHT22;5008;50.656;7.188;2023-01-20T13:37:20;3.40;99.90
9939;DHT22;5008;50.656;7.188;2023-01-20T13:39:49;3.40;99.90
9939;DHT22;5008;50.656;7.188;2023-01-20T13:42:28;3.40;99.90
9939;DHT22;5008;50.656;7.188;2023-01-20T13:45:15;3.40;99.90
9939;DHT22;5008;50.656;7.188;2023-01-20T13:47:54;3.30;99.90
9939;DHT22;5008;50.656;7.188;2023-01-20T13:50:24;3.30;99.90
9939;DHT22;5008;50.656;7.188;2023-01-20T13:53:05;3.40;99.90
9939;DHT22;5008;50.656;7.188;2023-01-20T13:56:05;3.40;99.90
9939;DHT22;5008;50.656;7.188;2023-01-20T13:58:48;3.40;99.90
9939;DHT22;5008;50.656;7.188;2023-01-20T14:01:15;3.30;99.90
9939;DHT22;5008;50.656;7.188;2023-01-20T14:03:43;3.20;99.90
9939;DHT22;5008;50.656;7.188;2023-01-20T14:06:25;3.20;99.90
9939;DHT22;5008;50.656;7.188;2023-01-20T14:08:53;3.10;99.90
9939;DHT22;5008;50.656;7.188;2023-01-20T14:11:21;3.10;99.90
9939;DHT22;5008;50.656;7.188;2023-01-20T14:13:51;3.00;99.90
9939;DHT22;5008;50.656;7.188;2023-01-20T14:16:19;3.00;99.90
9939;DHT22;5008;50.656;7.188;2023-01-20T14:18:48;2.90;99.90
9939;DHT22;5008;50.656;7.188;2023-01-20T14:21:18;2.90;99.90
9939;DHT22;5008;50.656;7.188;2023-01-20T14:23:46;2.90;99.90
9939;DHT22;5008;50.656;7.188;2023-01-20T14:26:19;2.80;99.90
9939;DHT22;5008;50.656;7.188;2023-01-20T14:28:48;2.80;99.90
9939;DHT22;5008;50.656;7.188;2023-01-20T14:31:18;2.80;99.90
9939;DHT22;5008;50.656;7.188;2023-01-20T14:33:50;2.80;99.90
9939;DHT22;5008;50.656;7.188;2023-01-20T14:36:20;2.80;99.90
9939;DHT22;5008;50.656;7.188;2023-01-20T14:38:50;2.70;99.90
9939;DHT22;5008;50.656;7.188;2023-01-20T14:41:45;2.70;99.90
9939;DHT22;5008;50.656;7.188;2023-01-20T14:44:16;2.70;99.90
9939;DHT22;5008;50.656;7.188;2023-01-20T14:46:45;2.60;99.90
9939;DHT22;5008;50.656;7.188;2023-01-20T14:49:16;2.60;99.90
9939;DHT22;5008;50.656;7.188;2023-01-20T15:01:51;2.50;99.90
9939;DHT22;5008;50.656;7.188;2023-01-20T15:04:19;2.60;99.90
9939;DHT22;5008;50.656;7.188;2023-01-20T15:06:54;2.60;99.90
9939;DHT22;5008;50.656;7.188;2023-01-20T15:09:26;2.60;99.90
9939;DHT22;5008;50.656;7.188;2023-01-20T15:15:22;2.60;99.90
9939;DHT22;5008;50.656;7.188;2023-01-20T15:20:49;2.60;99.90
9939;DHT22;5008;50.656;7.188;2023-01-20T15:23:22;2.50;99.90
9939;DHT22;5008;50.656;7.188;2023-01-20T15:25:50;2.50;99.90
9939;DHT22;5008;50.656;7.188;2023-01-20T15:28:26;2.60;99.90
9939;DHT22;5008;50.656;7.188;2023-01-20T15:30:55;2.50;99.90
9939;DHT22;5008;50.656;7.188;2023-01-20T15:33:23;2.40;99.90
9939;DHT22;5008;50.656;7.188;2023-01-20T15:35:56;2.40;99.90
9939;DHT22;5008;50.656;7.188;2023-01-20T15:38:30;2.40;99.90
9939;DHT22;5008;50.656;7.188;2023-01-20T15:40:57;2.40;99.90
9939;DHT22;5008;50.656;7.188;2023-01-20T15:43:25;2.40;99.90
9939;DHT22;5008;50.656;7.188;2023-01-20T15:45:52;2.40;99.90
9939;DHT22;5008;50.656;7.188;2023-01-20T15:48:20;2.40;99.90
9939;DHT22;5008;50.656;7.188;2023-01-20T15:50:48;2.40;99.90
9939;DHT22;5008;50.656;7.188;2023-01-20T15:53:17;2.40;99.90
9939;DHT22;5008;50.656;7.188;2023-01-20T15:55:46;2.30;99.90
9939;DHT22;5008;50.656;7.188;2023-01-20T15:58:27;2.30;99.90
9939;DHT22;5008;50.656;7.188;2023-01-20T16:00:56;2.30;99.90
9939;DHT22;5008;50.656;7.188;2023-01-20T16:03:23;2.30;99.90
9939;DHT22;5008;50.656;7.188;2023-01-20T16:05:52;2.30;99.90
9939;DHT22;5008;50.656;7.188;2023-01-20T16:08:22;2.20;99.90
9939;DHT22;5008;50.656;7.188;2023-01-20T16:10:49;2.10;99.90
9939;DHT22;5008;50.656;7.188;2023-01-20T16:13:16;2.20;99.90
9939;DHT22;5008;50.656;7.188;2023-01-20T16:15:48;2.20;99.90
9939;DHT22;5008;50.656;7.188;2023-01-20T16:18:17;2.20;99.90
9939;DHT22;5008;50.656;7.188;2023-01-20T16:20:46;2.10;99.90
9939;DHT22;5008;50.656;7.188;2023-01-20T16:23:14;2.20;99.90
9939;DHT22;5008;50.656;7.188;2023-01-20T16:25:42;2.20;99.90
9939;DHT22;5008;50.656;7.188;2023-01-20T16:28:12;2.30;99.90
9939;DHT22;5008;50.656;7.188;2023-01-20T16:30:40;2.30;99.90
9939;DHT22;5008;50.656;7.188;2023-01-20T16:33:15;2.20;99.90
9939;DHT22;5008;50.656;7.188;2023-01-20T16:35:42;2.20;99.90
9939;DHT22;5008;50.656;7.188;2023-01-20T16:38:12;2.30;99.90
9939;DHT22;5008;50.656;7.188;2023-01-20T16:40:46;2.30;99.90
9939;DHT22;5008;50.656;7.188;2023-01-20T16:43:13;2.20;99.90
9939;DHT22;5008;50.656;7.188;2023-01-20T16:45:41;2.20;99.90
9939;DHT22;5008;50.656;7.188;2023-01-20T16:48:07;2.20;99.90
9939;DHT22;5008;50.656;7.188;2023-01-20T16:50:35;2.10;99.90
9939;DHT22;5008;50.656;7.188;2023-01-20T16:53:02;2.20;99.90
9939;DHT22;5008;50.656;7.188;2023-01-20T16:55:33;2.10;99.90
9939;DHT22;5008;50.656;7.188;2023-01-20T16:58:02;2.10;99.90
9939;DHT22;5008;50.656;7.188;2023-01-20T17:00:29;2.20;99.90
9939;DHT22;5008;50.656;7.188;2023-01-20T17:02:56;2.10;99.90
9939;DHT22;5008;50.656;7.188;2023-01-20T17:05:22;2.10;99.90
9939;DHT22;5008;50.656;7.188;2023-01-20T17:07:50;2.20;99.90
9939;DHT22;5008;50.656;7.188;2023-01-20T17:10:18;2.20;99.90
9939;DHT22;5008;50.656;7.188;2023-01-20T17:12:46;2.20;99.90
9939;DHT22;5008;50.656;7.188;2023-01-20T17:15:14;2.20;99.90
9939;DHT22;5008;50.656;7.188;2023-01-20T17:17:41;2.20;99.90
9939;DHT22;5008;50.656;7.188;2023-01-20T17:20:09;2.10;99.90
9939;DHT22;5008;50.656;7.188;2023-01-20T17:22:37;2.20;99.90
9939;DHT22;5008;50.656;7.188;2023-01-20T17:25:05;2.10;99.90
9939;DHT22;5008;50.656;7.188;2023-01-20T17:27:32;2.10;99.90
9939;DHT22;5008;50.656;7.188;2023-01-20T17:29:59;2.10;99.90
9939;DHT22;5008;50.656;7.188;2023-01-20T17:32:28;2.10;99.90
9939;DHT22;5008;50.656;7.188;2023-01-20T17:34:54;2.10;99.90
9939;DHT22;5008;50.656;7.188;2023-01-20T17:37:21;2.10;99.90
9939;DHT22;5008;50.656;7.188;2023-01-20T17:39:48;2.10;99.90
9939;DHT22;5008;50.656;7.188;2023-01-20T17:42:15;2.20;99.90
9939;DHT22;5008;50.656;7.188;2023-01-20T17:44:41;2.30;99.90
9939;DHT22;5008;50.656;7.188;2023-01-20T17:47:08;2.20;99.90
9939;DHT22;5008;50.656;7.188;2023-01-20T17:49:36;2.20;99.90
9939;DHT22;5008;50.656;7.188;2023-01-20T17:52:04;2.20;99.90
9939;DHT22;5008;50.656;7.188;2023-01-20T17:54:31;2.20;99.90
9939;DHT22;5008;50.656;7.188;2023-01-20T17:56:57;2.20;99.90
9939;DHT22;5008;50.656;7.188;2023-01-20T17:59:24;2.10;99.90
9939;DHT22;5008;50.656;7.188;2023-01-20T18:01:51;2.10;99.90
9939;DHT22;5008;50.656;7.188;2023-01-20T18:04:18;2.20;99.90
9939;DHT22;5008;50.656;7.188;2023-01-20T18:06:47;2.10;99.90
9939;DHT22;5008;50.656;7.188;2023-01-20T18:09:14;2.10;99.90
9939;DHT22;5008;50.656;7.188;2023-01-20T18:11:40;2.20;99.90
9939;DHT22;5008;50.656;7.188;2023-01-20T18:14:08;2.10;99.90
9939;DHT22;5008;50.656;7.188;2023-01-20T18:16:37;2.10;99.90
9939;DHT22;5008;50.656;7.188;2023-01-20T18:19:04;2.10;99.90
9939;DHT22;5008;50.656;7.188;2023-01-20T18:21:31;2.10;99.90
9939;DHT22;5008;50.656;7.188;2023-01-20T18:24:01;2.10;99.90
9939;DHT22;5008;50.656;7.188;2023-01-20T18:26:30;2.10;99.90
9939;DHT22;5008;50.656;7.188;2023-01-20T18:28:59;2.20;99.90
9939;DHT22;5008;50.656;7.188;2023-01-20T18:31:28;2.20;99.90
9939;DHT22;5008;50.656;7.188;2023-01-20T18:33:56;2.20;99.90
9939;DHT22;5008;50.656;7.188;2023-01-20T18:36:24;2.10;99.90
9939;DHT22;5008;50.656;7.188;2023-01-20T18:38:53;2.30;99.90
9939;DHT22;5008;50.656;7.188;2023-01-20T18:41:22;2.30;99.90
9939;DHT22;5008;50.656;7.188;2023-01-20T18:43:50;2.20;99.90
9939;DHT22;5008;50.656;7.188;2023-01-20T18:46:17;2.20;99.90
9939;DHT22;5008;50.656;7.188;2023-01-20T18:48:45;2.10;99.90
9939;DHT22;5008;50.656;7.188;2023-01-20T18:51:14;2.00;99.90
9939;DHT22;5008;50.656;7.188;2023-01-20T18:53:42;2.10;99.90
9939;DHT22;5008;50.656;7.188;2023-01-20T18:56:10;2.00;99.90
9939;DHT22;5008;50.656;7.188;2023-01-20T18:58:39;2.00;99.90
9939;DHT22;5008;50.656;7.188;2023-01-20T19:01:12;1.90;99.90
9939;DHT22;5008;50.656;7.188;2023-01-20T19:03:39;1.90;99.90
9939;DHT22;5008;50.656;7.188;2023-01-20T19:06:07;1.80;99.90
9939;DHT22;5008;50.656;7.188;2023-01-20T19:08:36;1.80;99.90
9939;DHT22;5008;50.656;7.188;2023-01-20T19:11:04;1.70;99.90
9939;DHT22;5008;50.656;7.188;2023-01-20T19:13:33;1.70;99.90
9939;DHT22;5008;50.656;7.188;2023-01-20T19:16:01;1.70;99.90
9939;DHT22;5008;50.656;7.188;2023-01-20T19:18:29;1.70;99.90
9939;DHT22;5008;50.656;7.188;2023-01-20T19:21:02;1.60;99.90
9939;DHT22;5008;50.656;7.188;2023-01-20T19:23:29;1.60;99.90
9939;DHT22;5008;50.656;7.188;2023-01-20T19:26:00;1.50;99.90
9939;DHT22;5008;50.656;7.188;2023-01-20T19:28:27;1.40;99.90
9939;DHT22;5008;50.656;7.188;2023-01-20T19:30:54;1.30;99.90
9939;DHT22;5008;50.656;7.188;2023-01-20T19:33:22;1.30;99.90
9939;DHT22;5008;50.656;7.188;2023-01-20T19:35:49;1.30;99.90
9939;DHT22;5008;50.656;7.188;2023-01-20T19:38:15;1.30;99.90
9939;DHT22;5008;50.656;7.188;2023-01-20T19:40:42;1.20;99.90
9939;DHT22;5008;50.656;7.188;2023-01-20T19:43:09;1.10;99.90
9939;DHT22;5008;50.656;7.188;2023-01-20T19:45:36;1.00;99.90
9939;DHT22;5008;50.656;7.188;2023-01-20T19:48:03;1.00;99.90
9939;DHT22;5008;50.656;7.188;2023-01-20T19:50:31;1.10;99.90
9939;DHT22;5008;50.656;7.188;2023-01-20T19:52:58;1.10;99.90
9939;DHT22;5008;50.656;7.188;2023-01-20T19:55:25;1.10;99.90
9939;DHT22;5008;50.656;7.188;2023-01-20T19:57:51;1.20;99.90
9939;DHT22;5008;50.656;7.188;2023-01-20T20:00:18;1.30;99.90
9939;DHT22;5008;50.656;7.188;2023-01-20T20:02:45;1.30;99.90
9939;DHT22;5008;50.656;7.188;2023-01-20T20:05:12;1.30;99.90
9939;DHT22;5008;50.656;7.188;2023-01-20T20:07:42;1.20;99.90
9939;DHT22;5008;50.656;7.188;2023-01-20T20:10:09;1.10;99.90
9939;DHT22;5008;50.656;7.188;2023-01-20T20:12:36;1.10;99.90
9939;DHT22;5008;50.656;7.188;2023-01-20T20:15:03;1.10;99.90
9939;DHT22;5008;50.656;7.188;2023-01-20T20:17:30;1.00;99.90
9939;DHT22;5008;50.656;7.188;2023-01-20T20:19:57;1.00;99.90
9939;DHT22;5008;50.656;7.188;2023-01-20T20:22:23;1.00;99.90
9939;DHT22;5008;50.656;7.188;2023-01-20T20:24:51;1.10;99.90
9939;DHT22;5008;50.656;7.188;2023-01-20T20:27:18;1.10;99.90
9939;DHT22;5008;50.656;7.188;2023-01-20T20:29:45;1.00;99.90
9939;DHT22;5008;50.656;7.188;2023-01-20T20:32:12;1.00;99.90
9939;DHT22;5008;50.656;7.188;2023-01-20T20:34:39;1.00;99.90
9939;DHT22;5008;50.656;7.188;2023-01-20T20:37:05;1.10;99.90
9939;DHT22;5008;50.656;7.188;2023-01-20T20:39:33;1.00;99.90
9939;DHT22;5008;50.656;7.188;2023-01-20T20:42:02;1.00;99.90
9939;DHT22;5008;50.656;7.188;2023-01-20T20:44:28;1.00;99.90
9939;DHT22;5008;50.656;7.188;2023-01-20T20:46:55;0.90;99.90
9939;DHT22;5008;50.656;7.188;2023-01-20T20:49:22;0.90;99.90
9939;DHT22;5008;50.656;7.188;2023-01-20T20:51:49;0.90;99.90
9939;DHT22;5008;50.656;7.188;2023-01-20T20:54:15;0.80;99.90
9939;DHT22;5008;50.656;7.188;2023-01-20T20:56:42;0.80;99.90
9939;DHT22;5008;50.656;7.188;2023-01-20T20:59:11;0.70;99.90
9939;DHT22;5008;50.656;7.188;2023-01-20T21:01:37;0.70;99.90
9939;DHT22;5008;50.656;7.188;2023-01-20T21:04:04;0.70;99.90
9939;DHT22;5008;50.656;7.188;2023-01-20T21:06:32;0.80;99.90
9939;DHT22;5008;50.656;7.188;2023-01-20T21:08:59;0.80;99.90
9939;DHT22;5008;50.656;7.188;2023-01-20T21:11:26;0.80;99.90
9939;DHT22;5008;50.656;7.188;2023-01-20T21:13:53;1.00;99.90
9939;DHT22;5008;50.656;7.188;2023-01-20T21:16:22;1.10;99.90
9939;DHT22;5008;50.656;7.188;2023-01-20T21:18:50;1.20;99.90
9939;DHT22;5008;50.656;7.188;2023-01-20T21:21:18;1.30;99.90
9939;DHT22;5008;50.656;7.188;2023-01-20T21:23:49;1.40;99.90
9939;DHT22;5008;50.656;7.188;2023-01-20T21:26:16;1.50;99.90
9939;DHT22;5008;50.656;7.188;2023-01-20T21:28:43;1.50;99.90
9939;DHT22;5008;50.656;7.188;2023-01-20T21:31:14;1.70;99.90
9939;DHT22;5008;50.656;7.188;2023-01-20T21:33:43;1.70;99.90
9939;DHT22;5008;50.656;7.188;2023-01-20T21:36:11;1.60;99.90
9939;DHT22;5008;50.656;7.188;2023-01-20T21:38:38;1.70;99.90
9939;DHT22;5008;50.656;7.188;2023-01-20T21:41:07;1.70;99.90
9939;DHT22;5008;50.656;7.188;2023-01-20T21:43:36;1.70;99.90
9939;DHT22;5008;50.656;7.188;2023-01-20T21:46:21;1.70;99.90
9939;DHT22;5008;50.656;7.188;2023-01-20T21:48:51;1.80;99.90
9939;DHT22;5008;50.656;7.188;2023-01-20T21:51:35;1.70;99.90
9939;DHT22;5008;50.656;7.188;2023-01-20T21:54:20;1.70;99.90
9939;DHT22;5008;50.656;7.188;2023-01-20T21:56:47;1.80;99.90
9939;DHT22;5008;50.656;7.188;2023-01-20T21:59:14;1.80;99.90
